sensor_id;sensor_type;location;lat;lon;timestamp;temperature;humidity
36280;DHT22;22317;47.936;12.742;2023-11-19T00:00:06;3.90;59.10
36280;DHT22;22317;47.936;12.742;2023-11-19T00:02:40;3.90;59.10
36280;DHT22;22317;47.936;12.742;2023-11-19T00:05:09;3.90;59.10
36280;DHT22;22317;47.936;12.742;2023-11-19T00:07:37;4.00;59.00
36280;DHT22;22317;47.936;12.742;2023-11-19T00:10:14;3.90;59.00
36280;DHT22;22317;47.936;12.742;2023-11-19T00:12:42;3.90;59.10
36280;DHT22;22317;47.936;12.742;2023-11-19T00:15:08;3.90;59.70
36280;DHT22;22317;47.936;12.742;2023-11-19T00:18:17;3.80;59.10
36280;DHT22;22317;47.936;12.742;2023-11-19T00:21:26;4.00;59.40
36280;DHT22;22317;47.936;12.742;2023-11-19T00:24:12;5.20;59.90
36280;DHT22;22317;47.936;12.742;2023-11-19T00:27:02;3.90;60.20
36280;DHT22;22317;47.936;12.742;2023-11-19T00:29:41;3.80;59.60
36280;DHT22;22317;47.936;12.742;2023-11-19T00:35:31;4.00;59.50
36280;DHT22;22317;47.936;12.742;2023-11-19T00:38:58;3.80;61.00
36280;DHT22;22317;47.936;12.742;2023-11-19T00:42:43;4.10;59.70
36280;DHT22;22317;47.936;12.742;2023-11-19T00:45:35;4.10;59.60
36280;DHT22;22317;47.936;12.742;2023-11-19T00:51:26;4.50;60.20
36280;DHT22;22317;47.936;12.742;2023-11-19T00:54:00;4.10;60.70
36280;DHT22;22317;47.936;12.742;2023-11-19T00:59:55;4.70;60.10
36280;DHT22;22317;47.936;12.742;2023-11-19T01:02:20;3.90;60.80
36280;DHT22;22317;47.936;12.742;2023-11-19T01:04:59;4.50;60.20
36280;DHT22;22317;47.936;12.742;2023-11-19T01:07:35;4.30;61.60
36280;DHT22;22317;47.936;12.742;2023-11-19T01:10:01;3.90;63.70
36280;DHT22;22317;47.936;12.742;2023-11-19T01:12:28;4.20;61.00
36280;DHT22;22317;47.936;12.742;2023-11-19T01:15:01;4.60;60.50
36280;DHT22;22317;47.936;12.742;2023-11-19T01:17:27;4.00;60.10
36280;DHT22;22317;47.936;12.742;2023-11-19T01:19:52;4.00;60.00
36280;DHT22;22317;47.936;12.742;2023-11-19T01:22:37;4.70;60.60
36280;DHT22;22317;47.936;12.742;2023-11-19T01:28:19;4.60;61.80
36280;DHT22;22317;47.936;12.742;2023-11-19T01:30:50;4.40;61.90
36280;DHT22;22317;47.936;12.742;2023-11-19T01:33:16;6.00;61.70
36280;DHT22;22317;47.936;12.742;2023-11-19T01:35:45;4.10;60.40
36280;DHT22;22317;47.936;12.742;2023-11-19T01:38:11;4.10;60.50
36280;DHT22;22317;47.936;12.742;2023-11-19T01:40:37;4.10;60.40
36280;DHT22;22317;47.936;12.742;2023-11-19T01:43:04;4.10;60.50
36280;DHT22;22317;47.936;12.742;2023-11-19T01:45:31;4.10;60.60
36280;DHT22;22317;47.936;12.742;2023-11-19T01:48:02;4.10;60.60
36280;DHT22;22317;47.936;12.742;2023-11-19T01:50:32;4.10;60.60
36280;DHT22;22317;47.936;12.742;2023-11-19T01:52:58;4.10;60.60
36280;DHT22;22317;47.936;12.742;2023-11-19T01:55:25;4.10;60.60
36280;DHT22;22317;47.936;12.742;2023-11-19T01:57:55;4.10;60.60
36280;DHT22;22317;47.936;12.742;2023-11-19T02:00:25;4.10;60.60
36280;DHT22;22317;47.936;12.742;2023-11-19T02:02:52;4.10;60.70
36280;DHT22;22317;47.936;12.742;2023-11-19T02:05:33;4.10;60.70
36280;DHT22;22317;47.936;12.742;2023-11-19T02:08:31;4.20;60.80
36280;DHT22;22317;47.936;12.742;2023-11-19T02:10:57;5.90;61.90
36280;DHT22;22317;47.936;12.742;2023-11-19T02:13:26;4.30;60.80
36280;DHT22;22317;47.936;12.742;2023-11-19T02:16:09;4.20;60.80
36280;DHT22;22317;47.936;12.742;2023-11-19T02:18:40;5.40;61.60
36280;DHT22;22317;47.936;12.742;2023-11-19T02:21:05;4.20;61.00
36280;DHT22;22317;47.936;12.742;2023-11-19T02:23:53;4.20;60.80
36280;DHT22;22317;47.936;12.742;2023-11-19T02:26:32;4.20;61.00
36280;DHT22;22317;47.936;12.742;2023-11-19T02:29:02;4.20;61.50
36280;DHT22;22317;47.936;12.742;2023-11-19T02:31:28;4.20;60.80
36280;DHT22;22317;47.936;12.742;2023-11-19T02:33:54;5.10;61.30
36280;DHT22;22317;47.936;12.742;2023-11-19T02:36:20;4.30;60.90
36280;DHT22;22317;47.936;12.742;2023-11-19T02:38:47;4.30;60.90
36280;DHT22;22317;47.936;12.742;2023-11-19T02:41:21;4.30;61.00
36280;DHT22;22317;47.936;12.742;2023-11-19T02:43:47;4.30;61.00
36280;DHT22;22317;47.936;12.742;2023-11-19T02:46:14;4.20;61.00
36280;DHT22;22317;47.936;12.742;2023-11-19T02:48:39;4.30;61.10
36280;DHT22;22317;47.936;12.742;2023-11-19T02:51:06;4.30;61.20
36280;DHT22;22317;47.936;12.742;2023-11-19T02:53:35;4.30;61.40
36280;DHT22;22317;47.936;12.742;2023-11-19T02:56:03;4.40;61.20
36280;DHT22;22317;47.936;12.742;2023-11-19T02:58:45;4.30;61.20
36280;DHT22;22317;47.936;12.742;2023-11-19T03:01:12;4.40;61.20
36280;DHT22;22317;47.936;12.742;2023-11-19T03:03:48;4.30;61.10
36280;DHT22;22317;47.936;12.742;2023-11-19T03:06:20;4.30;61.20
36280;DHT22;22317;47.936;12.742;2023-11-19T03:08:47;4.30;61.10
36280;DHT22;22317;47.936;12.742;2023-11-19T03:11:14;4.30;61.10
36280;DHT22;22317;47.936;12.742;2023-11-19T03:13:39;4.30;61.10
36280;DHT22;22317;47.936;12.742;2023-11-19T03:16:05;4.60;61.40
36280;DHT22;22317;47.936;12.742;2023-11-19T03:18:33;4.30;61.20
36280;DHT22;22317;47.936;12.742;2023-11-19T03:20:58;4.30;61.30
36280;DHT22;22317;47.936;12.742;2023-11-19T03:23:24;4.30;61.30
36280;DHT22;22317;47.936;12.742;2023-11-19T03:25:53;4.40;61.40
36280;DHT22;22317;47.936;12.742;2023-11-19T03:28:21;4.40;61.50
36280;DHT22;22317;47.936;12.742;2023-11-19T03:30:46;4.50;61.50
36280;DHT22;22317;47.936;12.742;2023-11-19T03:33:15;5.40;62.00
36280;DHT22;22317;47.936;12.742;2023-11-19T03:35:54;4.40;61.40
36280;DHT22;22317;47.936;12.742;2023-11-19T03:38:36;4.40;61.40
36280;DHT22;22317;47.936;12.742;2023-11-19T03:41:13;5.20;61.90
36280;DHT22;22317;47.936;12.742;2023-11-19T03:43:42;4.40;61.90
36280;DHT22;22317;47.936;12.742;2023-11-19T03:46:19;4.40;62.30
36280;DHT22;22317;47.936;12.742;2023-11-19T03:48:49;4.40;61.60
36280;DHT22;22317;47.936;12.742;2023-11-19T03:51:16;4.40;61.50
36280;DHT22;22317;47.936;12.742;2023-11-19T03:53:45;4.50;61.60
36280;DHT22;22317;47.936;12.742;2023-11-19T03:56:12;4.60;61.80
36280;DHT22;22317;47.936;12.742;2023-11-19T03:58:38;4.50;61.60
36280;DHT22;22317;47.936;12.742;2023-11-19T04:01:05;4.50;61.60
36280;DHT22;22317;47.936;12.742;2023-11-19T04:03:30;4.50;61.70
36280;DHT22;22317;47.936;12.742;2023-11-19T04:05:56;4.60;61.70
36280;DHT22;22317;47.936;12.742;2023-11-19T04:08:22;4.50;61.70
36280;DHT22;22317;47.936;12.742;2023-11-19T04:10:48;4.60;61.80
36280;DHT22;22317;47.936;12.742;2023-11-19T04:13:14;4.50;61.90
36280;DHT22;22317;47.936;12.742;2023-11-19T04:15:40;4.50;61.80
36280;DHT22;22317;47.936;12.742;2023-11-19T04:18:05;5.60;62.60
36280;DHT22;22317;47.936;12.742;2023-11-19T04:20:31;4.50;61.80
36280;DHT22;22317;47.936;12.742;2023-11-19T04:22:57;4.50;61.70
36280;DHT22;22317;47.936;12.742;2023-11-19T04:25:24;4.50;61.70
36280;DHT22;22317;47.936;12.742;2023-11-19T04:27:51;4.50;61.70
36280;DHT22;22317;47.936;12.742;2023-11-19T04:30:17;4.50;61.80
36280;DHT22;22317;47.936;12.742;2023-11-19T04:32:44;4.70;62.00
36280;DHT22;22317;47.936;12.742;2023-11-19T04:35:09;4.90;62.10
36280;DHT22;22317;47.936;12.742;2023-11-19T04:37:36;4.50;62.00
36280;DHT22;22317;47.936;12.742;2023-11-19T04:40:03;4.50;62.10
36280;DHT22;22317;47.936;12.742;2023-11-19T04:42:29;4.50;62.30
36280;DHT22;22317;47.936;12.742;2023-11-19T04:44:55;5.20;62.60
36280;DHT22;22317;47.936;12.742;2023-11-19T04:47:21;4.50;62.20
36280;DHT22;22317;47.936;12.742;2023-11-19T04:49:46;4.50;62.30
36280;DHT22;22317;47.936;12.742;2023-11-19T04:52:12;4.60;62.30
36280;DHT22;22317;47.936;12.742;2023-11-19T04:54:44;4.60;62.40
36280;DHT22;22317;47.936;12.742;2023-11-19T04:57:10;4.60;63.10
36280;DHT22;22317;47.936;12.742;2023-11-19T04:59:37;4.60;62.30
36280;DHT22;22317;47.936;12.742;2023-11-19T05:02:03;4.70;62.40
36280;DHT22;22317;47.936;12.742;2023-11-19T05:04:30;4.60;62.40
36280;DHT22;22317;47.936;12.742;2023-11-19T05:06:55;4.60;62.40
36280;DHT22;22317;47.936;12.742;2023-11-19T05:09:21;4.70;62.40
36280;DHT22;22317;47.936;12.742;2023-11-19T05:11:47;4.70;62.40
36280;DHT22;22317;47.936;12.742;2023-11-19T05:14:13;4.70;62.40
36280;DHT22;22317;47.936;12.742;2023-11-19T05:16:40;4.80;62.40
36280;DHT22;22317;47.936;12.742;2023-11-19T05:19:06;4.70;62.50
36280;DHT22;22317;47.936;12.742;2023-11-19T05:21:32;4.80;62.50
36280;DHT22;22317;47.936;12.742;2023-11-19T05:23:57;4.80;62.40
36280;DHT22;22317;47.936;12.742;2023-11-19T05:26:24;4.80;62.50
36280;DHT22;22317;47.936;12.742;2023-11-19T05:28:50;4.80;62.60
36280;DHT22;22317;47.936;12.742;2023-11-19T05:31:17;4.90;62.60
36280;DHT22;22317;47.936;12.742;2023-11-19T05:33:44;4.80;62.50
36280;DHT22;22317;47.936;12.742;2023-11-19T05:36:11;4.80;62.40
36280;DHT22;22317;47.936;12.742;2023-11-19T05:38:38;4.90;62.60
36280;DHT22;22317;47.936;12.742;2023-11-19T05:41:04;4.80;62.60
36280;DHT22;22317;47.936;12.742;2023-11-19T05:43:33;4.80;62.60
36280;DHT22;22317;47.936;12.742;2023-11-19T05:45:59;4.80;62.60
36280;DHT22;22317;47.936;12.742;2023-11-19T05:48:26;4.80;62.50
36280;DHT22;22317;47.936;12.742;2023-11-19T05:50:51;4.70;62.60
36280;DHT22;22317;47.936;12.742;2023-11-19T05:53:17;4.80;62.80
36280;DHT22;22317;47.936;12.742;2023-11-19T05:55:43;4.80;62.80
36280;DHT22;22317;47.936;12.742;2023-11-19T05:58:15;4.90;62.90
36280;DHT22;22317;47.936;12.742;2023-11-19T06:00:41;4.90;62.90
36280;DHT22;22317;47.936;12.742;2023-11-19T06:03:07;4.80;63.20
36280;DHT22;22317;47.936;12.742;2023-11-19T06:05:33;4.90;63.00
36280;DHT22;22317;47.936;12.742;2023-11-19T06:07:59;5.00;63.20
36280;DHT22;22317;47.936;12.742;2023-11-19T06:10:24;4.90;63.00
36280;DHT22;22317;47.936;12.742;2023-11-19T06:12:59;4.90;63.00
36280;DHT22;22317;47.936;12.742;2023-11-19T06:15:28;4.90;63.00
36280;DHT22;22317;47.936;12.742;2023-11-19T06:17:54;4.90;63.10
36280;DHT22;22317;47.936;12.742;2023-11-19T06:20:20;5.00;63.20
36280;DHT22;22317;47.936;12.742;2023-11-19T06:22:46;4.90;63.20
36280;DHT22;22317;47.936;12.742;2023-11-19T06:25:12;5.00;63.20
36280;DHT22;22317;47.936;12.742;2023-11-19T06:27:41;5.00;63.20
36280;DHT22;22317;47.936;12.742;2023-11-19T06:30:07;5.00;63.20
36280;DHT22;22317;47.936;12.742;2023-11-19T06:32:33;5.00;63.20
36280;DHT22;22317;47.936;12.742;2023-11-19T06:34:59;5.00;63.30
36280;DHT22;22317;47.936;12.742;2023-11-19T06:37:24;5.00;63.30
36280;DHT22;22317;47.936;12.742;2023-11-19T06:39:50;5.10;63.30
36280;DHT22;22317;47.936;12.742;2023-11-19T06:42:16;5.10;63.30
36280;DHT22;22317;47.936;12.742;2023-11-19T06:44:42;5.20;63.40
36280;DHT22;22317;47.936;12.742;2023-11-19T06:47:07;5.10;63.30
36280;DHT22;22317;47.936;12.742;2023-11-19T06:49:33;5.00;63.30
36280;DHT22;22317;47.936;12.742;2023-11-19T06:51:59;5.10;63.30
36280;DHT22;22317;47.936;12.742;2023-11-19T06:54:24;5.10;63.50
36280;DHT22;22317;47.936;12.742;2023-11-19T06:56:50;5.10;63.40
36280;DHT22;22317;47.936;12.742;2023-11-19T06:59:16;5.10;63.40
36280;DHT22;22317;47.936;12.742;2023-11-19T07:01:42;5.10;63.40
36280;DHT22;22317;47.936;12.742;2023-11-19T07:04:11;5.10;63.60
36280;DHT22;22317;47.936;12.742;2023-11-19T07:06:38;5.20;63.70
36280;DHT22;22317;47.936;12.742;2023-11-19T07:09:07;5.20;63.70
36280;DHT22;22317;47.936;12.742;2023-11-19T07:11:39;5.40;63.80
36280;DHT22;22317;47.936;12.742;2023-11-19T07:14:06;5.20;63.70
36280;DHT22;22317;47.936;12.742;2023-11-19T07:16:32;5.20;63.70
36280;DHT22;22317;47.936;12.742;2023-11-19T07:19:00;5.20;63.90
36280;DHT22;22317;47.936;12.742;2023-11-19T07:21:26;5.30;64.00
36280;DHT22;22317;47.936;12.742;2023-11-19T07:23:57;5.30;64.20
36280;DHT22;22317;47.936;12.742;2023-11-19T07:26:23;5.30;64.80
36280;DHT22;22317;47.936;12.742;2023-11-19T07:28:51;5.30;65.30
36280;DHT22;22317;47.936;12.742;2023-11-19T07:31:18;5.40;66.00
36280;DHT22;22317;47.936;12.742;2023-11-19T07:33:45;5.50;66.50
36280;DHT22;22317;47.936;12.742;2023-11-19T07:36:12;5.60;67.00
36280;DHT22;22317;47.936;12.742;2023-11-19T07:38:37;5.70;67.50
36280;DHT22;22317;47.936;12.742;2023-11-19T07:41:07;5.80;67.70
36280;DHT22;22317;47.936;12.742;2023-11-19T07:43:35;5.90;67.90
36280;DHT22;22317;47.936;12.742;2023-11-19T07:46:01;6.10;68.10
36280;DHT22;22317;47.936;12.742;2023-11-19T07:48:27;6.20;68.20
36280;DHT22;22317;47.936;12.742;2023-11-19T07:50:53;6.30;68.30
36280;DHT22;22317;47.936;12.742;2023-11-19T07:53:19;6.40;68.40
36280;DHT22;22317;47.936;12.742;2023-11-19T07:55:46;6.50;68.50
36280;DHT22;22317;47.936;12.742;2023-11-19T07:58:11;6.60;68.70
36280;DHT22;22317;47.936;12.742;2023-11-19T08:00:38;6.60;68.70
36280;DHT22;22317;47.936;12.742;2023-11-19T08:03:04;6.70;68.90
36280;DHT22;22317;47.936;12.742;2023-11-19T08:05:30;6.70;68.90
36280;DHT22;22317;47.936;12.742;2023-11-19T08:07:56;6.90;69.10
36280;DHT22;22317;47.936;12.742;2023-11-19T08:10:22;7.00;69.10
36280;DHT22;22317;47.936;12.742;2023-11-19T08:12:48;7.10;69.20
36280;DHT22;22317;47.936;12.742;2023-11-19T08:15:14;7.20;69.30
36280;DHT22;22317;47.936;12.742;2023-11-19T08:17:41;7.20;69.30
36280;DHT22;22317;47.936;12.742;2023-11-19T08:20:09;7.30;69.40
36280;DHT22;22317;47.936;12.742;2023-11-19T08:22:38;7.40;69.50
36280;DHT22;22317;47.936;12.742;2023-11-19T08:25:05;7.50;69.40
36280;DHT22;22317;47.936;12.742;2023-11-19T08:27:31;7.60;69.30
36280;DHT22;22317;47.936;12.742;2023-11-19T08:29:57;7.60;69.30
36280;DHT22;22317;47.936;12.742;2023-11-19T08:32:26;7.70;69.40
36280;DHT22;22317;47.936;12.742;2023-11-19T08:34:53;7.70;69.40
36280;DHT22;22317;47.936;12.742;2023-11-19T08:37:19;7.70;69.30
36280;DHT22;22317;47.936;12.742;2023-11-19T08:39:50;7.70;69.40
36280;DHT22;22317;47.936;12.742;2023-11-19T08:42:16;7.80;69.60
36280;DHT22;22317;47.936;12.742;2023-11-19T08:44:43;7.90;69.70
36280;DHT22;22317;47.936;12.742;2023-11-19T08:47:10;8.00;69.70
36280;DHT22;22317;47.936;12.742;2023-11-19T08:49:36;8.00;69.70
36280;DHT22;22317;47.936;12.742;2023-11-19T08:52:02;8.00;69.50
36280;DHT22;22317;47.936;12.742;2023-11-19T08:54:28;8.20;69.70
36280;DHT22;22317;47.936;12.742;2023-11-19T08:56:53;8.30;69.70
36280;DHT22;22317;47.936;12.742;2023-11-19T08:59:19;8.40;69.60
36280;DHT22;22317;47.936;12.742;2023-11-19T09:01:45;8.50;69.60
36280;DHT22;22317;47.936;12.742;2023-11-19T09:04:11;8.50;69.30
36280;DHT22;22317;47.936;12.742;2023-11-19T09:06:36;8.60;69.20
36280;DHT22;22317;47.936;12.742;2023-11-19T09:09:02;8.50;69.00
36280;DHT22;22317;47.936;12.742;2023-11-19T09:11:31;8.60;69.10
36280;DHT22;22317;47.936;12.742;2023-11-19T09:13:57;8.60;69.00
36280;DHT22;22317;47.936;12.742;2023-11-19T09:16:23;8.60;68.80
36280;DHT22;22317;47.936;12.742;2023-11-19T09:18:49;8.60;68.80
36280;DHT22;22317;47.936;12.742;2023-11-19T09:21:15;8.60;68.90
36280;DHT22;22317;47.936;12.742;2023-11-19T09:23:41;8.60;68.90
36280;DHT22;22317;47.936;12.742;2023-11-19T09:26:08;8.70;68.90
36280;DHT22;22317;47.936;12.742;2023-11-19T09:28:36;8.80;69.00
36280;DHT22;22317;47.936;12.742;2023-11-19T09:31:01;8.80;69.00
36280;DHT22;22317;47.936;12.742;2023-11-19T09:33:30;8.90;68.90
36280;DHT22;22317;47.936;12.742;2023-11-19T09:35:56;9.00;69.00
36280;DHT22;22317;47.936;12.742;2023-11-19T09:38:21;9.10;68.90
36280;DHT22;22317;47.936;12.742;2023-11-19T09:40:47;9.30;69.10
36280;DHT22;22317;47.936;12.742;2023-11-19T09:43:15;9.60;69.70
36280;DHT22;22317;47.936;12.742;2023-11-19T09:45:51;9.90;69.90
36280;DHT22;22317;47.936;12.742;2023-11-19T09:48:17;10.30;69.50
36280;DHT22;22317;47.936;12.742;2023-11-19T09:50:47;10.70;68.90
36280;DHT22;22317;47.936;12.742;2023-11-19T09:53:14;10.80;67.70
36280;DHT22;22317;47.936;12.742;2023-11-19T09:55:40;10.80;66.60
36280;DHT22;22317;47.936;12.742;2023-11-19T09:58:06;10.70;66.10
36280;DHT22;22317;47.936;12.742;2023-11-19T10:00:33;10.60;65.70
36280;DHT22;22317;47.936;12.742;2023-11-19T10:02:59;10.60;65.70
36280;DHT22;22317;47.936;12.742;2023-11-19T10:05:26;10.60;66.00
36280;DHT22;22317;47.936;12.742;2023-11-19T10:07:52;10.70;65.90
36280;DHT22;22317;47.936;12.742;2023-11-19T10:10:18;10.70;65.40
36280;DHT22;22317;47.936;12.742;2023-11-19T10:12:48;10.60;64.90
36280;DHT22;22317;47.936;12.742;2023-11-19T10:15:23;10.60;65.10
36280;DHT22;22317;47.936;12.742;2023-11-19T10:17:58;10.60;65.40
36280;DHT22;22317;47.936;12.742;2023-11-19T10:20:24;10.70;65.40
36280;DHT22;22317;47.936;12.742;2023-11-19T10:22:53;10.90;65.90
36280;DHT22;22317;47.936;12.742;2023-11-19T10:25:28;11.20;66.00
36280;DHT22;22317;47.936;12.742;2023-11-19T10:27:55;11.60;66.20
36280;DHT22;22317;47.936;12.742;2023-11-19T10:30:28;12.00;65.70
36280;DHT22;22317;47.936;12.742;2023-11-19T10:33:11;12.20;64.70
36280;DHT22;22317;47.936;12.742;2023-11-19T10:35:53;12.50;64.10
36280;DHT22;22317;47.936;12.742;2023-11-19T10:38:20;12.80;64.30
36280;DHT22;22317;47.936;12.742;2023-11-19T10:40:48;13.00;63.70
36280;DHT22;22317;47.936;12.742;2023-11-19T10:43:14;13.30;62.70
36280;DHT22;22317;47.936;12.742;2023-11-19T10:45:40;13.50;62.20
36280;DHT22;22317;47.936;12.742;2023-11-19T10:48:07;13.70;61.10
36280;DHT22;22317;47.936;12.742;2023-11-19T10:53:00;13.90;59.90
36280;DHT22;22317;47.936;12.742;2023-11-19T10:55:33;13.80;58.90
36280;DHT22;22317;47.936;12.742;2023-11-19T10:58:05;13.60;58.00
36280;DHT22;22317;47.936;12.742;2023-11-19T11:00:54;13.60;58.20
36280;DHT22;22317;47.936;12.742;2023-11-19T11:03:24;13.40;57.90
36280;DHT22;22317;47.936;12.742;2023-11-19T11:05:51;13.20;57.90
36280;DHT22;22317;47.936;12.742;2023-11-19T11:08:18;13.10;58.30
36280;DHT22;22317;47.936;12.742;2023-11-19T11:13:13;12.90;58.30
36280;DHT22;22317;47.936;12.742;2023-11-19T11:15:39;12.80;58.50
36280;DHT22;22317;47.936;12.742;2023-11-19T11:18:08;12.90;59.00
36280;DHT22;22317;47.936;12.742;2023-11-19T11:20:35;13.00;59.10
36280;DHT22;22317;47.936;12.742;2023-11-19T11:29:01;14.30;59.50
36280;DHT22;22317;47.936;12.742;2023-11-19T11:39:49;15.70;56.30
36280;DHT22;22317;47.936;12.742;2023-11-19T11:45:03;16.20;55.80
36280;DHT22;22317;47.936;12.742;2023-11-19T11:50:22;16.70;54.00
36280;DHT22;22317;47.936;12.742;2023-11-19T11:55:36;17.10;53.50
36280;DHT22;22317;47.936;12.742;2023-11-19T11:58:03;17.60;53.20
36280;DHT22;22317;47.936;12.742;2023-11-19T12:03:02;18.50;51.10
36280;DHT22;22317;47.936;12.742;2023-11-19T12:05:30;18.80;50.40
36280;DHT22;22317;47.936;12.742;2023-11-19T12:08:04;19.20;49.50
36280;DHT22;22317;47.936;12.742;2023-11-19T12:10:49;19.00;47.60
36280;DHT22;22317;47.936;12.742;2023-11-19T12:13:16;18.50;47.10
36280;DHT22;22317;47.936;12.742;2023-11-19T12:16:07;17.80;47.20
36280;DHT22;22317;47.936;12.742;2023-11-19T12:18:33;17.30;47.60
36280;DHT22;22317;47.936;12.742;2023-11-19T12:20:59;16.90;48.40
36280;DHT22;22317;47.936;12.742;2023-11-19T12:23:34;16.60;48.90
36280;DHT22;22317;47.936;12.742;2023-11-19T12:26:00;16.40;49.40
36280;DHT22;22317;47.936;12.742;2023-11-19T12:28:26;16.30;49.70
36280;DHT22;22317;47.936;12.742;2023-11-19T12:30:53;16.20;50.00
36280;DHT22;22317;47.936;12.742;2023-11-19T12:33:19;16.20;50.00
36280;DHT22;22317;47.936;12.742;2023-11-19T12:35:47;16.10;49.90
36280;DHT22;22317;47.936;12.742;2023-11-19T12:38:26;16.10;50.20
36280;DHT22;22317;47.936;12.742;2023-11-19T12:43:30;16.20;50.30
36280;DHT22;22317;47.936;12.742;2023-11-19T12:45:56;16.40;50.50
36280;DHT22;22317;47.936;12.742;2023-11-19T12:48:21;16.60;50.40
36280;DHT22;22317;47.936;12.742;2023-11-19T12:53:16;17.50;50.80
36280;DHT22;22317;47.936;12.742;2023-11-19T12:55:42;18.40;50.50
36280;DHT22;22317;47.936;12.742;2023-11-19T12:58:07;19.60;49.50
36280;DHT22;22317;47.936;12.742;2023-11-19T13:00:33;20.50;48.20
36280;DHT22;22317;47.936;12.742;2023-11-19T13:02:59;21.40;46.70
36280;DHT22;22317;47.936;12.742;2023-11-19T13:05:26;22.40;45.60
36280;DHT22;22317;47.936;12.742;2023-11-19T13:08:12;23.30;44.00
36280;DHT22;22317;47.936;12.742;2023-11-19T13:10:53;24.20;50.90
36280;DHT22;22317;47.936;12.742;2023-11-19T13:13:19;25.00;39.90
36280;DHT22;22317;47.936;12.742;2023-11-19T13:15:45;25.50;39.20
36280;DHT22;22317;47.936;12.742;2023-11-19T13:18:12;25.90;38.50
36280;DHT22;22317;47.936;12.742;2023-11-19T13:20:38;26.50;37.70
36280;DHT22;22317;47.936;12.742;2023-11-19T13:23:05;27.10;37.10
36280;DHT22;22317;47.936;12.742;2023-11-19T13:25:32;27.50;35.20
36280;DHT22;22317;47.936;12.742;2023-11-19T13:27:59;27.10;33.40
36280;DHT22;22317;47.936;12.742;2023-11-19T13:30:25;26.30;33.40
36280;DHT22;22317;47.936;12.742;2023-11-19T13:32:52;25.50;33.30
36280;DHT22;22317;47.936;12.742;2023-11-19T13:35:18;24.50;33.20
36280;DHT22;22317;47.936;12.742;2023-11-19T13:37:45;23.50;33.90
36280;DHT22;22317;47.936;12.742;2023-11-19T13:40:11;22.70;34.50
36280;DHT22;22317;47.936;12.742;2023-11-19T13:42:43;21.90;35.50
36280;DHT22;22317;47.936;12.742;2023-11-19T13:45:12;21.50;36.50
36280;DHT22;22317;47.936;12.742;2023-11-19T13:47:39;20.90;36.40
36280;DHT22;22317;47.936;12.742;2023-11-19T13:50:11;20.20;37.10
36280;DHT22;22317;47.936;12.742;2023-11-19T13:52:42;19.50;37.50
36280;DHT22;22317;47.936;12.742;2023-11-19T13:55:09;19.30;39.80
36280;DHT22;22317;47.936;12.742;2023-11-19T13:57:38;19.70;40.90
36280;DHT22;22317;47.936;12.742;2023-11-19T14:00:06;19.60;39.60
36280;DHT22;22317;47.936;12.742;2023-11-19T14:02:34;19.20;39.30
36280;DHT22;22317;47.936;12.742;2023-11-19T14:05:00;19.30;40.90
36280;DHT22;22317;47.936;12.742;2023-11-19T14:07:26;19.60;41.30
36280;DHT22;22317;47.936;12.742;2023-11-19T14:09:52;20.00;41.30
36280;DHT22;22317;47.936;12.742;2023-11-19T14:12:18;20.60;41.30
36280;DHT22;22317;47.936;12.742;2023-11-19T14:14:44;21.30;41.30
36280;DHT22;22317;47.936;12.742;2023-11-19T14:17:10;21.70;39.00
36280;DHT22;22317;47.936;12.742;2023-11-19T14:19:36;22.40;40.10
36280;DHT22;22317;47.936;12.742;2023-11-19T14:22:03;23.30;39.60
36280;DHT22;22317;47.936;12.742;2023-11-19T14:24:29;23.60;37.10
36280;DHT22;22317;47.936;12.742;2023-11-19T14:26:55;23.20;35.60
36280;DHT22;22317;47.936;12.742;2023-11-19T14:29:24;22.50;35.30
36280;DHT22;22317;47.936;12.742;2023-11-19T14:31:51;21.70;35.40
36280;DHT22;22317;47.936;12.742;2023-11-19T14:34:19;20.90;35.50
36280;DHT22;22317;47.936;12.742;2023-11-19T14:36:45;20.10;36.00
36280;DHT22;22317;47.936;12.742;2023-11-19T14:39:10;19.40;36.50
36280;DHT22;22317;47.936;12.742;2023-11-19T14:41:36;18.80;37.30
36280;DHT22;22317;47.936;12.742;2023-11-19T14:44:02;18.30;38.10
36280;DHT22;22317;47.936;12.742;2023-11-19T14:46:29;17.90;38.80
36280;DHT22;22317;47.936;12.742;2023-11-19T14:48:55;17.50;39.40
36280;DHT22;22317;47.936;12.742;2023-11-19T14:51:20;17.00;57.70
36280;DHT22;22317;47.936;12.742;2023-11-19T14:53:46;16.70;49.50
36280;DHT22;22317;47.936;12.742;2023-11-19T14:56:12;16.30;41.00
36280;DHT22;22317;47.936;12.742;2023-11-19T14:58:39;15.90;41.40
36280;DHT22;22317;47.936;12.742;2023-11-19T15:01:05;15.60;42.20
36280;DHT22;22317;47.936;12.742;2023-11-19T15:03:31;15.30;42.80
36280;DHT22;22317;47.936;12.742;2023-11-19T15:05:58;15.00;43.20
36280;DHT22;22317;47.936;12.742;2023-11-19T15:08:23;14.70;43.70
36280;DHT22;22317;47.936;12.742;2023-11-19T15:10:49;14.40;44.00
36280;DHT22;22317;47.936;12.742;2023-11-19T15:13:15;14.10;44.50
36280;DHT22;22317;47.936;12.742;2023-11-19T15:15:41;13.80;45.10
36280;DHT22;22317;47.936;12.742;2023-11-19T15:18:07;13.60;45.60
36280;DHT22;22317;47.936;12.742;2023-11-19T15:20:36;13.30;46.20
36280;DHT22;22317;47.936;12.742;2023-11-19T15:23:02;13.10;46.70
36280;DHT22;22317;47.936;12.742;2023-11-19T15:25:31;12.90;47.10
36280;DHT22;22317;47.936;12.742;2023-11-19T15:30:26;12.60;47.50
36280;DHT22;22317;47.936;12.742;2023-11-19T15:33:03;12.40;48.40
36280;DHT22;22317;47.936;12.742;2023-11-19T15:35:30;12.20;49.00
36280;DHT22;22317;47.936;12.742;2023-11-19T15:37:55;12.00;50.30
36280;DHT22;22317;47.936;12.742;2023-11-19T15:40:22;11.90;50.90
36280;DHT22;22317;47.936;12.742;2023-11-19T15:42:53;11.70;49.50
36280;DHT22;22317;47.936;12.742;2023-11-19T15:45:26;11.60;50.40
36280;DHT22;22317;47.936;12.742;2023-11-19T15:48:01;11.50;50.70
36280;DHT22;22317;47.936;12.742;2023-11-19T15:50:27;11.40;51.00
36280;DHT22;22317;47.936;12.742;2023-11-19T15:52:54;11.30;51.40
36280;DHT22;22317;47.936;12.742;2023-11-19T15:55:20;11.20;51.80
36280;DHT22;22317;47.936;12.742;2023-11-19T15:57:46;11.10;52.10
36280;DHT22;22317;47.936;12.742;2023-11-19T16:00:12;11.00;58.20
36280;DHT22;22317;47.936;12.742;2023-11-19T16:02:37;11.00;52.50
36280;DHT22;22317;47.936;12.742;2023-11-19T16:05:03;10.90;52.80
36280;DHT22;22317;47.936;12.742;2023-11-19T16:07:30;10.90;57.70
36280;DHT22;22317;47.936;12.742;2023-11-19T16:09:56;10.80;53.50
36280;DHT22;22317;47.936;12.742;2023-11-19T16:12:22;10.80;53.90
36280;DHT22;22317;47.936;12.742;2023-11-19T16:14:48;10.80;53.40
36280;DHT22;22317;47.936;12.742;2023-11-19T16:17:13;10.70;53.60
36280;DHT22;22317;47.936;12.742;2023-11-19T16:19:39;10.70;53.80
36280;DHT22;22317;47.936;12.742;2023-11-19T16:22:06;10.60;53.80
36280;DHT22;22317;47.936;12.742;2023-11-19T16:24:36;10.60;54.10